createdAt,value
2018-07-09T00:01:33.077Z,17.42
2018-07-09T00:04:02.923Z,17.26
2018-07-09T00:06:32.627Z,17.27
2018-07-09T00:09:02.242Z,17.25
2018-07-09T00:11:32.054Z,17.26
2018-07-09T00:14:01.533Z,17.15
2018-07-09T00:16:31.375Z,17.18
2018-07-09T00:19:01.011Z,17.09
2018-07-09T00:21:30.511Z,17.12
2018-07-09T00:24:00.474Z,17.01
2018-07-09T00:26:30.364Z,17.06
2018-07-09T00:29:00.730Z,16.97
2018-07-09T00:31:30.362Z,16.97
2018-07-09T00:34:00.449Z,17.08
2018-07-09T00:36:30.091Z,17.00
2018-07-09T00:38:59.970Z,17.06
2018-07-09T00:41:30.322Z,16.94
2018-07-09T00:44:00.289Z,16.91
2018-07-09T00:46:30.437Z,17.08
2018-07-09T00:49:00.590Z,16.79
2018-07-09T00:51:31.007Z,16.80
2018-07-09T00:54:00.730Z,16.77
2018-07-09T00:56:30.816Z,16.79
2018-07-09T00:59:01.779Z,16.78
2018-07-09T01:01:31.641Z,16.72
2018-07-09T01:04:01.414Z,16.63
2018-07-09T01:06:31.604Z,16.56
2018-07-09T01:09:01.714Z,16.49
2018-07-09T01:11:42.596Z,16.41
2018-07-09T01:14:12.411Z,16.48
2018-07-09T01:16:42.332Z,16.47
2018-07-09T01:19:12.490Z,16.45
2018-07-09T01:21:41.969Z,16.52
2018-07-09T01:24:12.021Z,16.55
2018-07-09T01:26:42.064Z,16.51
2018-07-09T01:29:12.163Z,16.52
2018-07-09T01:31:42.307Z,16.56
2018-07-09T01:34:12.449Z,16.51
2018-07-09T01:36:42.207Z,16.58
2018-07-09T01:39:12.101Z,16.66
2018-07-09T01:41:41.790Z,16.64
2018-07-09T01:44:11.984Z,16.65
2018-07-09T01:46:41.720Z,16.67
2018-07-09T01:49:11.274Z,16.51
2018-07-09T01:51:40.930Z,16.77
2018-07-09T01:54:10.551Z,16.65
2018-07-09T01:56:40.310Z,16.63
2018-07-09T01:59:10.012Z,16.67
2018-07-09T02:01:39.948Z,16.68
2018-07-09T02:04:10.245Z,16.70
2018-07-09T02:06:39.967Z,16.70
2018-07-09T02:09:10.422Z,16.68
2018-07-09T02:11:40.164Z,16.63
2018-07-09T02:14:10.407Z,16.68
2018-07-09T02:16:39.934Z,16.66
2018-07-09T02:19:09.738Z,16.61
2018-07-09T02:21:39.235Z,16.52
2018-07-09T02:24:09.128Z,16.49
2018-07-09T02:26:39.044Z,16.42
2018-07-09T02:29:08.856Z,16.36
2018-07-09T02:31:38.568Z,16.36
2018-07-09T02:34:08.510Z,16.38
2018-07-09T02:36:38.267Z,16.40
2018-07-09T02:39:08.373Z,16.32
2018-07-09T02:41:38.232Z,16.35
2018-07-09T02:44:08.223Z,16.46
2018-07-09T02:46:37.843Z,16.38
2018-07-09T02:49:07.568Z,16.37
2018-07-09T02:51:37.107Z,16.40
2018-07-09T02:54:06.785Z,16.52
2018-07-09T02:56:36.536Z,16.50
2018-07-09T02:59:06.937Z,16.58
2018-07-09T03:01:36.737Z,16.63
2018-07-09T03:04:06.354Z,16.62
2018-07-09T03:06:36.477Z,16.66
2018-07-09T03:09:06.651Z,16.73
2018-07-09T03:11:36.599Z,16.72
2018-07-09T03:14:07.263Z,16.72
2018-07-09T03:16:36.787Z,16.86
2018-07-09T03:19:06.447Z,16.76
2018-07-09T03:21:36.074Z,16.85
2018-07-09T03:24:05.778Z,16.77
2018-07-09T03:26:35.667Z,16.87
2018-07-09T03:29:05.581Z,16.92
2018-07-09T03:31:35.403Z,16.95
2018-07-09T03:34:05.363Z,16.94
2018-07-09T03:36:35.146Z,16.95
2018-07-09T03:39:05.254Z,17.09
2018-07-09T03:41:35.274Z,17.03
2018-07-09T03:44:05.346Z,17.14
2018-07-09T03:46:35.234Z,17.11
2018-07-09T03:49:04.907Z,17.22
2018-07-09T03:51:34.969Z,17.12
2018-07-09T03:54:04.478Z,17.05
2018-07-09T03:56:34.231Z,17.25
2018-07-09T03:59:04.355Z,17.24
2018-07-09T04:01:34.162Z,17.31
2018-07-09T04:04:03.839Z,17.40
2018-07-09T04:06:33.616Z,17.35
2018-07-09T04:09:03.896Z,17.41
2018-07-09T04:11:33.848Z,17.45
2018-07-09T04:14:03.995Z,17.44
2018-07-09T04:16:33.611Z,17.51
2018-07-09T04:19:03.163Z,17.48
2018-07-09T04:21:32.788Z,17.57
2018-07-09T04:24:02.424Z,17.55
2018-07-09T04:26:32.122Z,17.46
2018-07-09T04:29:02.051Z,17.71
2018-07-09T04:31:31.582Z,17.78
2018-07-09T04:34:01.387Z,17.83
2018-07-09T04:36:31.139Z,18.01
2018-07-09T04:39:00.983Z,18.02
2018-07-09T04:41:31.123Z,18.08
2018-07-09T04:44:00.814Z,18.39
2018-07-09T04:46:31.107Z,18.00
2018-07-09T04:49:01.014Z,18.20
2018-07-09T04:51:30.863Z,18.08
2018-07-09T04:54:01.168Z,17.91
2018-07-09T04:56:30.787Z,18.13
2018-07-09T04:59:00.614Z,17.89
2018-07-09T05:01:30.742Z,18.00
2018-07-09T05:04:00.345Z,17.99
2018-07-09T05:06:30.055Z,18.18
2018-07-09T05:08:59.791Z,18.19
2018-07-09T05:11:29.703Z,18.27
2018-07-09T05:13:59.478Z,18.56
2018-07-09T05:16:28.950Z,18.31
2018-07-09T05:18:58.824Z,18.37
2018-07-09T05:21:28.459Z,18.34
2018-07-09T05:23:58.464Z,18.26
2018-07-09T05:26:28.354Z,18.54
2018-07-09T05:28:58.059Z,19.06
2018-07-09T05:31:27.928Z,19.21
2018-07-09T05:33:57.656Z,19.02
2018-07-09T05:36:27.435Z,18.95
2018-07-09T05:38:57.095Z,19.13
2018-07-09T05:41:26.973Z,18.97
2018-07-09T05:43:57.043Z,19.13
2018-07-09T05:46:26.567Z,19.31
2018-07-09T05:48:56.188Z,18.96
2018-07-09T05:51:26.055Z,19.39
2018-07-09T05:53:55.992Z,19.47
2018-07-09T05:56:25.913Z,19.65
2018-07-09T05:58:56.078Z,19.55
2018-07-09T06:01:26.112Z,19.26
2018-07-09T06:03:56.216Z,19.23
2018-07-09T06:06:26.215Z,19.20
2018-07-09T06:08:55.702Z,19.09
2018-07-09T06:11:25.411Z,19.39
2018-07-09T06:13:55.549Z,19.11
2018-07-09T06:16:25.227Z,19.03
2018-07-09T06:18:54.710Z,19.04
2018-07-09T06:21:24.596Z,19.10
2018-07-09T06:23:54.259Z,19.05
2018-07-09T06:26:24.011Z,19.09
2018-07-09T06:28:53.758Z,19.16
2018-07-09T06:31:23.792Z,19.04
2018-07-09T06:33:53.395Z,19.11
2018-07-09T06:36:23.314Z,19.13
2018-07-09T06:38:53.038Z,19.30
2018-07-09T06:41:23.314Z,19.48
2018-07-09T06:43:53.179Z,19.60
2018-07-09T06:46:23.293Z,19.46
2018-07-09T06:48:52.927Z,19.61
2018-07-09T06:51:22.614Z,19.63
2018-07-09T06:53:52.355Z,19.73
2018-07-09T06:56:22.041Z,19.59
2018-07-09T06:58:52.190Z,20.05
2018-07-09T07:01:21.870Z,20.21
2018-07-09T07:03:51.808Z,20.01
2018-07-09T07:06:21.483Z,20.12
2018-07-09T07:08:51.144Z,20.15
2018-07-09T07:11:21.112Z,20.24
2018-07-09T07:13:50.863Z,20.64
2018-07-09T07:16:20.577Z,20.35
2018-07-09T07:18:50.439Z,20.56
2018-07-09T07:21:20.065Z,20.49
2018-07-09T07:23:49.918Z,20.64
2018-07-09T07:26:19.595Z,20.15
2018-07-09T07:28:49.534Z,20.20
2018-07-09T07:31:19.317Z,20.25
2018-07-09T07:33:49.239Z,20.13
2018-07-09T07:36:19.168Z,20.06
2018-07-09T07:38:49.070Z,19.99
2018-07-09T07:41:18.579Z,19.86
2018-07-09T07:43:48.457Z,19.74
2018-07-09T07:46:18.291Z,19.99
2018-07-09T07:48:48.435Z,20.22
2018-07-09T07:51:18.091Z,20.54
2018-07-09T07:53:47.610Z,20.12
2018-07-09T07:56:17.199Z,20.09
2018-07-09T07:58:47.578Z,20.25
2018-07-09T08:01:17.478Z,20.15
2018-07-09T08:03:47.766Z,20.16
2018-07-09T08:06:17.527Z,20.21
2018-07-09T08:08:47.446Z,20.23
2018-07-09T08:11:17.551Z,20.34
2018-07-09T08:13:47.432Z,20.60
2018-07-09T08:16:17.099Z,20.97
2018-07-09T08:18:46.724Z,20.96
2018-07-09T08:21:17.124Z,20.75
2018-07-09T08:23:46.695Z,20.56
2018-07-09T08:26:16.383Z,20.74
2018-07-09T08:28:46.387Z,20.33
2018-07-09T08:31:16.203Z,20.61
2018-07-09T08:33:45.867Z,20.36
2018-07-09T08:36:15.847Z,20.61
2018-07-09T08:38:45.914Z,20.66
2018-07-09T08:41:16.191Z,20.42
2018-07-09T08:43:45.871Z,20.35
2018-07-09T08:46:16.239Z,20.29
2018-07-09T08:48:46.401Z,20.43
2018-07-09T08:51:16.335Z,20.29
2018-07-09T08:53:45.862Z,20.38
2018-07-09T08:56:15.419Z,20.79
2018-07-09T08:58:44.997Z,21.01
2018-07-09T09:01:15.155Z,20.80
2018-07-09T09:03:45.116Z,21.27
2018-07-09T09:06:14.810Z,21.09
2018-07-09T09:08:45.119Z,20.99
2018-07-09T09:11:14.882Z,21.37
2018-07-09T09:13:44.637Z,21.49
2018-07-09T09:16:14.594Z,21.64
2018-07-09T09:18:44.257Z,21.66
2018-07-09T09:21:13.725Z,21.88
2018-07-09T09:23:43.606Z,21.46
2018-07-09T09:26:13.290Z,21.36
2018-07-09T09:28:43.225Z,21.61
2018-07-09T09:31:13.215Z,21.55
2018-07-09T09:33:42.883Z,21.35
2018-07-09T09:36:12.971Z,20.98
2018-07-09T09:38:42.762Z,21.36
2018-07-09T09:41:12.505Z,21.23
2018-07-09T09:43:42.711Z,21.33
2018-07-09T09:46:12.524Z,21.18
2018-07-09T09:48:42.258Z,21.30
2018-07-09T09:51:12.255Z,21.24
2018-07-09T09:53:41.806Z,21.36
2018-07-09T09:56:11.411Z,19.75
2018-07-09T09:58:41.155Z,21.16
2018-07-09T10:01:10.866Z,21.36
2018-07-09T10:03:40.899Z,21.43
2018-07-09T10:06:10.593Z,21.56
2018-07-09T10:08:40.539Z,21.74
2018-07-09T10:11:10.315Z,21.76
2018-07-09T10:13:40.390Z,22.09
2018-07-09T10:16:10.022Z,22.26
2018-07-09T10:18:40.477Z,22.20
2018-07-09T10:21:10.125Z,22.16
2018-07-09T10:23:39.810Z,22.01
2018-07-09T10:26:09.414Z,21.68
2018-07-09T10:28:39.052Z,22.45
2018-07-09T10:31:08.714Z,22.93
2018-07-09T10:33:38.674Z,22.81
2018-07-09T10:36:08.471Z,22.50
2018-07-09T10:38:38.351Z,22.68
2018-07-09T10:41:08.291Z,22.43
2018-07-09T10:43:38.424Z,22.70
2018-07-09T10:46:08.547Z,22.65
2018-07-09T10:48:38.535Z,22.79
2018-07-09T10:51:08.447Z,22.68
2018-07-09T10:53:38.404Z,22.17
2018-07-09T10:56:08.202Z,21.69
2018-07-09T10:58:37.871Z,21.71
2018-07-09T11:01:07.343Z,21.49
2018-07-09T11:03:36.966Z,21.26
2018-07-09T11:06:07.219Z,21.51
2018-07-09T11:08:37.235Z,21.30
2018-07-09T11:11:07.263Z,21.63
2018-07-09T11:13:37.209Z,21.49
2018-07-09T11:16:07.078Z,21.60
2018-07-09T11:18:36.758Z,21.40
2018-07-09T11:21:06.486Z,21.57
2018-07-09T11:23:36.195Z,21.67
2018-07-09T11:26:05.851Z,21.62
2018-07-09T11:28:35.866Z,21.58
2018-07-09T11:31:05.464Z,21.54
2018-07-09T11:33:35.058Z,21.49
2018-07-09T11:36:04.969Z,21.13
2018-07-09T11:38:34.695Z,21.25
2018-07-09T11:41:04.542Z,21.32
2018-07-09T11:43:34.390Z,21.19
2018-07-09T11:46:04.208Z,21.38
2018-07-09T11:48:33.921Z,21.50
2018-07-09T11:51:03.838Z,21.70
2018-07-09T11:53:33.955Z,21.69
2018-07-09T11:56:03.773Z,21.86
2018-07-09T11:58:33.400Z,21.84
2018-07-09T12:01:03.057Z,21.92
2018-07-09T12:03:32.810Z,21.85
2018-07-09T12:06:02.734Z,21.77
2018-07-09T12:08:32.383Z,21.57
2018-07-09T12:11:02.142Z,21.94
2018-07-09T12:13:32.075Z,22.14
2018-07-09T12:16:01.758Z,21.98
2018-07-09T12:18:32.180Z,22.50
2018-07-09T12:21:02.063Z,22.75
2018-07-09T12:23:31.911Z,23.00
2018-07-09T12:26:01.539Z,22.90
2018-07-09T12:28:31.412Z,22.83
2018-07-09T12:31:00.979Z,23.19
2018-07-09T12:33:30.752Z,22.88
2018-07-09T12:36:00.945Z,23.48
2018-07-09T12:38:30.935Z,23.64
2018-07-09T12:41:00.927Z,23.70
2018-07-09T12:43:30.986Z,23.53
2018-07-09T12:46:00.750Z,23.81
2018-07-09T12:48:30.898Z,24.01
2018-07-09T12:51:00.972Z,24.47
2018-07-09T12:53:30.954Z,24.63
2018-07-09T12:56:00.814Z,24.57
2018-07-09T12:58:30.441Z,23.96
2018-07-09T13:01:00.051Z,23.64
2018-07-09T13:03:29.716Z,23.72
2018-07-09T13:05:59.463Z,23.43
2018-07-09T13:08:29.121Z,23.26
2018-07-09T13:10:59.294Z,23.68
2018-07-09T13:13:29.135Z,23.60
2018-07-09T13:15:58.929Z,23.42
2018-07-09T13:18:29.059Z,23.04
2018-07-09T13:20:59.120Z,22.88
2018-07-09T13:23:29.258Z,23.09
2018-07-09T13:25:58.787Z,22.30
2018-07-09T13:28:28.659Z,22.27
2018-07-09T13:30:58.566Z,22.30
2018-07-09T13:33:28.390Z,22.16
2018-07-09T13:35:58.230Z,22.22
2018-07-09T13:38:28.047Z,22.23
2018-07-09T13:40:57.824Z,21.96
2018-07-09T13:43:27.571Z,21.84
2018-07-09T13:45:57.434Z,21.95
2018-07-09T13:48:28.175Z,22.10
2018-07-09T13:50:59.052Z,21.99
2018-07-09T13:53:29.038Z,21.78
2018-07-09T13:55:58.631Z,21.71
2018-07-09T13:58:28.939Z,21.51
2018-07-09T14:00:58.870Z,21.75
2018-07-09T14:03:28.697Z,21.66
2018-07-09T14:05:58.941Z,21.99
2018-07-09T14:08:28.680Z,21.98
2018-07-09T14:10:58.342Z,22.09
2018-07-09T14:13:28.398Z,22.02
2018-07-09T14:15:58.124Z,21.79
2018-07-09T14:18:28.423Z,21.70
2018-07-09T14:20:58.318Z,21.50
2018-07-09T14:23:27.862Z,21.94
2018-07-09T14:25:57.908Z,21.29
2018-07-09T14:28:27.635Z,21.10
2018-07-09T14:30:57.138Z,21.61
2018-07-09T14:33:27.190Z,21.50
2018-07-09T14:35:57.346Z,21.25
2018-07-09T14:38:27.588Z,21.29
2018-07-09T14:40:57.427Z,21.33
2018-07-09T14:43:27.461Z,21.32
2018-07-09T14:45:57.298Z,21.29
2018-07-09T14:48:27.185Z,21.46
2018-07-09T14:50:56.859Z,21.25
2018-07-09T14:53:27.257Z,21.37
2018-07-09T14:55:56.816Z,21.22
2018-07-09T14:58:26.356Z,21.34
2018-07-09T15:00:56.530Z,21.39
2018-07-09T15:03:26.264Z,21.28
2018-07-09T15:05:56.264Z,21.22
2018-07-09T15:08:26.340Z,21.12
2018-07-09T15:10:56.023Z,21.06
2018-07-09T15:13:25.695Z,21.24
2018-07-09T15:15:55.289Z,21.23
2018-07-09T15:18:25.138Z,21.01
2018-07-09T15:20:55.395Z,20.92
2018-07-09T15:23:25.166Z,21.05
2018-07-09T15:25:54.719Z,21.22
2018-07-09T15:28:24.612Z,21.25
2018-07-09T15:30:54.425Z,21.36
2018-07-09T15:33:24.377Z,21.12
2018-07-09T15:35:54.177Z,21.04
2018-07-09T15:38:23.965Z,21.15
2018-07-09T15:40:54.098Z,21.09
2018-07-09T15:44:02.219Z,21.04
2018-07-09T15:46:32.540Z,21.23
2018-07-09T15:49:02.705Z,21.07
2018-07-09T15:51:32.715Z,21.25
2018-07-09T15:54:02.370Z,21.18
2018-07-09T15:56:31.970Z,21.44
2018-07-09T15:59:02.037Z,21.42
2018-07-09T16:01:31.715Z,21.23
2018-07-09T16:04:01.530Z,21.19
2018-07-09T16:06:31.538Z,21.23
2018-07-09T16:09:01.253Z,21.11
2018-07-09T16:11:31.130Z,21.06
2018-07-09T16:14:01.228Z,20.95
2018-07-09T16:16:31.278Z,20.99
2018-07-09T16:19:01.247Z,21.11
2018-07-09T16:21:31.052Z,21.01
2018-07-09T16:24:00.618Z,21.05
2018-07-09T16:26:30.151Z,20.90
2018-07-09T16:28:59.730Z,21.00
2018-07-09T16:31:29.738Z,20.90
2018-07-09T16:33:59.387Z,20.92
2018-07-09T16:36:29.242Z,21.02
2018-07-09T16:38:59.131Z,21.14
2018-07-09T16:41:28.982Z,20.92
2018-07-09T16:43:58.642Z,20.95
2018-07-09T16:46:28.762Z,20.93
2018-07-09T16:48:58.618Z,21.03
2018-07-09T16:51:28.199Z,20.95
2018-07-09T16:53:58.065Z,20.91
2018-07-09T16:56:27.685Z,20.89
2018-07-09T16:58:57.413Z,20.73
2018-07-09T17:01:27.699Z,20.68
2018-07-09T17:03:57.631Z,20.62
2018-07-09T17:06:27.783Z,20.33
2018-07-09T17:08:57.644Z,20.49
2018-07-09T17:11:28.143Z,20.44
2018-07-09T17:13:57.807Z,20.39
2018-07-09T17:16:27.804Z,20.49
2018-07-09T17:18:57.967Z,20.40
2018-07-09T17:21:27.524Z,20.36
2018-07-09T17:23:57.222Z,20.33
2018-07-09T17:26:27.131Z,20.46
2018-07-09T17:28:57.106Z,20.40
2018-07-09T17:31:26.887Z,20.23
2018-07-09T17:33:56.860Z,20.19
2018-07-09T17:36:26.597Z,20.01
2018-07-09T17:38:56.470Z,19.91
2018-07-09T17:41:26.048Z,19.98
2018-07-09T17:43:55.827Z,19.75
2018-07-09T17:46:25.510Z,19.89
2018-07-09T17:48:55.088Z,19.92
2018-07-09T17:51:24.965Z,19.58
2018-07-09T17:53:54.583Z,19.68
2018-07-09T17:56:24.233Z,19.41
2018-07-09T17:58:53.886Z,19.66
2018-07-09T18:01:23.705Z,19.69
2018-07-09T18:03:53.387Z,19.67
2018-07-09T18:06:23.457Z,19.72
2018-07-09T18:08:53.314Z,19.69
2018-07-09T18:11:22.862Z,19.83
2018-07-09T18:13:52.835Z,19.81
2018-07-09T18:16:22.482Z,19.94
2018-07-09T18:18:52.132Z,19.57
2018-07-09T18:21:21.744Z,20.01
2018-07-09T18:23:51.377Z,20.06
2018-07-09T18:26:21.064Z,19.88
2018-07-09T18:28:51.162Z,19.92
2018-07-09T18:31:21.075Z,19.85
2018-07-09T18:33:51.111Z,19.84
2018-07-09T18:36:20.752Z,19.61
2018-07-09T18:38:50.701Z,19.35
2018-07-09T18:41:20.672Z,19.23
2018-07-09T18:43:50.340Z,19.01
2018-07-09T18:46:20.567Z,18.83
2018-07-09T18:48:50.166Z,19.07
2018-07-09T18:51:19.857Z,18.86
2018-07-09T18:53:49.482Z,18.83
2018-07-09T18:56:19.263Z,18.82
2018-07-09T18:58:48.934Z,18.65
2018-07-09T19:01:18.828Z,18.65
2018-07-09T19:03:48.604Z,18.42
2018-07-09T19:06:28.833Z,18.36
2018-07-09T19:08:59.211Z,18.39
2018-07-09T19:11:29.091Z,18.41
2018-07-09T19:13:59.123Z,18.29
2018-07-09T19:16:29.172Z,18.33
2018-07-09T19:19:09.818Z,18.05
2018-07-09T19:21:51.920Z,17.98
2018-07-09T19:24:20.254Z,17.92
2018-07-09T19:26:48.939Z,17.99
2018-07-09T19:29:17.243Z,17.88
2018-07-09T19:31:45.659Z,17.80
2018-07-09T19:34:14.103Z,17.68
2018-07-09T19:36:42.593Z,17.71
2018-07-09T19:39:11.723Z,17.61
2018-07-09T19:41:40.209Z,17.38
2018-07-09T19:44:08.543Z,17.36
2018-07-09T19:46:36.860Z,17.42
2018-07-09T19:49:05.201Z,17.43
2018-07-09T19:51:33.456Z,17.30
2018-07-09T19:54:01.789Z,17.49
2018-07-09T19:56:30.137Z,17.78
2018-07-09T19:58:58.517Z,18.04
2018-07-09T20:01:26.811Z,17.82
2018-07-09T20:03:55.105Z,17.60
2018-07-09T20:06:23.498Z,17.57
2018-07-09T20:08:56.974Z,17.35
2018-07-09T20:11:30.533Z,16.71
2018-07-09T20:14:04.035Z,16.85
2018-07-09T20:16:37.460Z,16.81
2018-07-09T20:19:05.689Z,16.49
2018-07-09T20:21:34.037Z,16.44
2018-07-09T20:24:02.389Z,16.48
2018-07-09T20:26:30.800Z,16.46
2018-07-09T20:28:59.135Z,16.34
2018-07-09T20:31:27.395Z,16.33
2018-07-09T20:33:55.727Z,16.54
2018-07-09T20:36:23.950Z,16.66
2018-07-09T20:38:52.238Z,16.75
2018-07-09T20:41:20.458Z,16.64
2018-07-09T20:43:48.836Z,16.61
2018-07-09T20:46:17.099Z,16.32
2018-07-09T20:48:45.426Z,16.31
2018-07-09T20:51:13.889Z,16.24
2018-07-09T20:53:42.345Z,16.19
2018-07-09T20:56:10.679Z,16.18
2018-07-09T20:58:38.960Z,16.19
2018-07-09T21:01:07.212Z,16.18
2018-07-09T21:03:35.470Z,16.25
2018-07-09T21:06:03.821Z,16.21
2018-07-09T21:08:32.031Z,16.06
2018-07-09T21:11:00.343Z,16.17
2018-07-09T21:13:32.540Z,16.20
2018-07-09T21:16:01.122Z,16.31
2018-07-09T21:18:29.066Z,16.28
2018-07-09T21:20:57.283Z,16.19
2018-07-09T21:23:25.650Z,15.77
2018-07-09T21:25:53.867Z,15.78
2018-07-09T21:28:22.186Z,16.18
2018-07-09T21:30:50.518Z,16.21
2018-07-09T21:33:18.863Z,16.35
2018-07-09T21:35:47.273Z,16.24
2018-07-09T21:38:15.571Z,16.32
2018-07-09T21:40:43.862Z,16.26
2018-07-09T21:43:12.086Z,16.30
2018-07-09T21:45:40.444Z,16.20
2018-07-09T21:48:10.555Z,15.92
2018-07-09T21:50:37.071Z,16.05
2018-07-09T21:53:05.412Z,16.14
2018-07-09T21:55:33.611Z,16.31
2018-07-09T21:58:01.899Z,16.27
2018-07-09T22:00:30.084Z,16.21
2018-07-09T22:02:58.399Z,16.43
2018-07-09T22:05:27.003Z,16.04
2018-07-09T22:07:55.287Z,16.28
2018-07-09T22:10:23.690Z,16.12
2018-07-09T22:12:51.936Z,16.28
2018-07-09T22:15:20.119Z,15.98
2018-07-09T22:17:48.403Z,16.20
2018-07-09T22:20:16.751Z,16.15
2018-07-09T22:22:45.000Z,15.80
2018-07-09T22:25:13.279Z,15.89
2018-07-09T22:27:41.721Z,15.83
2018-07-09T22:30:10.096Z,15.79
2018-07-09T22:32:39.862Z,15.83
2018-07-09T22:35:09.510Z,15.75
2018-07-09T22:37:39.004Z,15.47
2018-07-09T22:40:08.884Z,15.36
2018-07-09T22:42:38.528Z,15.19
2018-07-09T22:45:08.116Z,15.19
2018-07-09T22:47:37.892Z,15.21
2018-07-09T22:50:07.465Z,15.25
2018-07-09T22:52:37.171Z,15.31
2018-07-09T22:55:17.942Z,15.29
2018-07-09T22:57:47.591Z,15.13
2018-07-09T23:00:19.665Z,15.31
2018-07-09T23:03:05.512Z,15.33
2018-07-09T23:05:35.218Z,15.22
2018-07-09T23:08:05.181Z,15.27
2018-07-09T23:12:49.922Z,15.43
2018-07-09T23:16:33.209Z,15.20
2018-07-09T23:19:21.869Z,15.21
2018-07-09T23:22:02.566Z,15.19
2018-07-09T23:24:30.816Z,15.19
2018-07-09T23:26:59.043Z,15.09
2018-07-09T23:29:27.343Z,15.05
2018-07-09T23:31:55.691Z,15.04
2018-07-09T23:34:23.992Z,15.01
2018-07-09T23:36:52.342Z,15.06
2018-07-09T23:39:20.562Z,15.22
2018-07-09T23:41:48.791Z,15.32
2018-07-09T23:44:17.110Z,15.20
2018-07-09T23:46:45.380Z,15.27
2018-07-09T23:49:13.728Z,15.22
2018-07-09T23:51:42.003Z,15.33
2018-07-09T23:54:10.218Z,15.42
2018-07-09T23:59:11.575Z,15.37
